Thunder radar more information blitzortung!


Radar de pluja more information rain snow radar


Visita la nostra xarxa de llocs de meteo:

Template documentation
and downloads

And another site



No particular awareness of the weather is required.    There are no Weather-warnings

Pagina Historial Weather Underground text

Diari Resum Abril 18, 2016 Unitats:  Mètric    Imperial   Tant
« Previous Dia
SegĂźent Dia »
Diari Setmana Mensual Anual Personalitzada
  Maxima: Minima: Media:
Temperatura: 22.0 °C 8.2 °C 15.7 °C
Punt de rosada: 10.2 °C 3.9 °C 7.2 °C
Humitat: 76 % 44 % 58 %
Wind Speed: 24.1 km/h 0.0 km/h 9 km/h
RĂ fegues de vent: 24.1 km/h - -
Vent:- - SSE
Pression baro: 1022.9 hPa 1017.8 hPa -
Precipitacions: 0.0 mm    
Historical Graphs
 
 
Dades de taula per Abril 18, 2016
Temps Temperatura Punt de rosada Pression baro Vent Wind Speed RĂ fegues de vent Humitat Rainfall Rate (Hourly)
00:00 14.3 °C 5.1 °C 1018.8 hPa NNE 5.6 km/h 5.6 km/h 54 % 0.0 mm
00:05 14.3 °C 5.4 °C 1018.8 hPa ENE 3.2 km/h 4.8 km/h 55 % 0.0 mm
00:10 11.2 °C 5.5 °C 1017.8 hPa WSW 1.6 km/h 1.6 km/h 68 % 0.0 mm
00:20 11.3 °C 5.4 °C 1018.8 hPa WSW 1.6 km/h 3.2 km/h 67 % 0.0 mm
00:30 11.2 °C 5.7 °C 1018.8 hPa Calm   1.6 km/h 69 % 0.0 mm
00:40 11.1 °C 5.8 °C 1018.8 hPa Calm   3.2 km/h 70 % 0.0 mm
00:50 10.9 °C 5.4 °C 1018.8 hPa Calm   3.2 km/h 69 % 0.0 mm
01:00 10.8 °C 5.6 °C 1018.8 hPa East 1.6 km/h 1.6 km/h 70 % 0.0 mm
01:10 10.6 °C 5.6 °C 1018.8 hPa Calm   3.2 km/h 71 % 0.0 mm
01:20 10.5 °C 5.4 °C 1018.8 hPa Calm   1.6 km/h 71 % 0.0 mm
01:30 10.5 °C 5.7 °C 1018.8 hPa ENE 1.6 km/h 3.2 km/h 72 % 0.0 mm
01:40 10.4 °C 5.6 °C 1018.8 hPa Calm   1.6 km/h 72 % 0.0 mm
01:50 10.1 °C 5.1 °C 1018.8 hPa Calm   1.6 km/h 71 % 0.0 mm
02:00 9.9 °C 4.9 °C 1018.8 hPa Calm     71 % 0.0 mm
02:10 9.8 °C 5.2 °C 1018.8 hPa Calm     73 % 0.0 mm
02:20 9.7 °C 5.3 °C 1018.8 hPa Calm     74 % 0.0 mm
02:30 9.6 °C 4.8 °C 1018.8 hPa Calm   3.2 km/h 72 % 0.0 mm
02:40 9.5 °C 4.9 °C 1018.8 hPa Calm   1.6 km/h 73 % 0.0 mm
02:50 9.5 °C 4.9 °C 1019.9 hPa Calm   3.2 km/h 73 % 0.0 mm
03:00 9.7 °C 4.9 °C 1019.9 hPa Calm   3.2 km/h 72 % 0.0 mm
03:10 9.8 °C 5.2 °C 1019.9 hPa Calm   1.6 km/h 73 % 0.0 mm
03:20 10.2 °C 5.6 °C 1019.9 hPa SSW 1.6 km/h 3.2 km/h 73 % 0.0 mm
03:30 11.0 °C 6.6 °C 1018.8 hPa SW 1.6 km/h 3.2 km/h 74 % 0.0 mm
03:40 11.6 °C 6.7 °C 1018.8 hPa South 1.6 km/h 3.2 km/h 72 % 0.0 mm
03:50 11.7 °C 6.4 °C 1018.8 hPa South 1.6 km/h 3.2 km/h 70 % 0.0 mm
04:00 12.1 °C 6.8 °C 1018.8 hPa SW 3.2 km/h 3.2 km/h 70 % 0.0 mm
04:10 12.3 °C 7.0 °C 1018.8 hPa SW 1.6 km/h 3.2 km/h 70 % 0.0 mm
04:20 13.1 °C 7.6 °C 1019.9 hPa SW 3.2 km/h 3.2 km/h 69 % 0.0 mm
04:30 13.8 °C 8.2 °C 1019.9 hPa Calm   3.2 km/h 69 % 0.0 mm
04:40 14.5 °C 8.7 °C 1019.9 hPa ENE 3.2 km/h 4.8 km/h 68 % 0.0 mm
04:50 14.9 °C 8.6 °C 1019.9 hPa ENE 3.2 km/h 4.8 km/h 66 % 0.0 mm
05:00 15.0 °C 8.4 °C 1019.9 hPa NE 4.8 km/h 6.4 km/h 65 % 0.0 mm
05:10 15.5 °C 8.7 °C 1019.9 hPa NE 3.2 km/h 4.8 km/h 64 % 0.0 mm
05:20 15.6 °C 8.3 °C 1019.9 hPa NE 3.2 km/h 6.4 km/h 62 % 0.0 mm
05:30 16.1 °C 8.8 °C 1019.9 hPa NE 3.2 km/h 4.8 km/h 62 % 0.0 mm
05:40 16.4 °C 8.8 °C 1019.9 hPa NNE 3.2 km/h 4.8 km/h 61 % 0.0 mm
05:50 17.2 °C 9.1 °C 1019.9 hPa West 1.6 km/h 4.8 km/h 59 % 0.0 mm
06:00 17.7 °C 9.3 °C 1019.9 hPa NW 1.6 km/h 3.2 km/h 58 % 0.0 mm
06:10 18.3 °C 9.6 °C 1019.9 hPa ENE 3.2 km/h 4.8 km/h 57 % 0.0 mm
06:20 18.2 °C 9.3 °C 1019.9 hPa SE 8.0 km/h 8.0 km/h 56 % 0.0 mm
11:31 18.6 °C 9.4 °C 1020.9 hPa SW 5.6 km/h 5.6 km/h 55 % 0.0 mm
11:36 19.3 °C 9.8 °C 1020.9 hPa WSW 2.3 km/h 3.5 km/h 54 % 0.0 mm
11:41 19.6 °C 9.8 °C 1020.9 hPa WSW 5.8 km/h 5.8 km/h 53 % 0.0 mm
11:46 19.4 °C 9.3 °C 1019.9 hPa West 9.3 km/h 9.3 km/h 52 % 0.0 mm
11:51 19.0 °C 8.6 °C 1019.9 hPa SW 7.4 km/h 7.4 km/h 51 % 0.0 mm
11:56 19.1 °C 8.4 °C 1019.9 hPa WSW 3.7 km/h 3.7 km/h 50 % 0.0 mm
12:06 19.7 °C 8.7 °C 1018.8 hPa South 3.9 km/h 7.6 km/h 49 % 0.0 mm
12:11 20.3 °C 9.2 °C 1018.8 hPa SSE 5.6 km/h 5.6 km/h 49 % 0.0 mm
12:16 19.9 °C 8.9 °C 1019.9 hPa ESE 9.3 km/h 9.5 km/h 49 % 0.0 mm
12:21 19.9 °C 8.9 °C 1019.9 hPa SSW 5.6 km/h 5.6 km/h 49 % 0.0 mm
12:26 19.8 °C 8.4 °C 1019.9 hPa SW 6.1 km/h 6.1 km/h 48 % 0.0 mm
12:31 19.9 °C 8.6 °C 1019.9 hPa WSW 9.7 km/h 9.7 km/h 48 % 0.0 mm
12:36 19.7 °C 8.4 °C 1019.9 hPa SW 3.9 km/h 6.1 km/h 48 % 0.0 mm
12:41 19.6 °C 8.3 °C 1019.9 hPa SW 1.9 km/h 2.6 km/h 48 % 0.0 mm
12:46 19.9 °C 8.6 °C 1019.9 hPa WSW 4.2 km/h 4.7 km/h 48 % 0.0 mm
12:51 19.8 °C 8.2 °C 1019.9 hPa ESE 3.7 km/h 3.7 km/h 47 % 0.0 mm
12:56 19.9 °C 8.6 °C 1019.9 hPa East 9.3 km/h 9.3 km/h 48 % 0.0 mm
13:01 19.7 °C 8.7 °C 1019.9 hPa ENE 9.3 km/h 9.3 km/h 49 % 0.0 mm
13:06 19.8 °C 9.1 °C 1019.9 hPa ENE 8.7 km/h 8.7 km/h 50 % 0.0 mm
13:11 19.8 °C 9.1 °C 1019.9 hPa ESE 7.4 km/h 7.4 km/h 50 % 0.0 mm
13:16 19.6 °C 8.9 °C 1020.9 hPa ESE 3.7 km/h 3.9 km/h 50 % 0.0 mm
13:21 19.5 °C 8.8 °C 1020.9 hPa ESE 1.9 km/h 3.9 km/h 50 % 0.0 mm
13:26 19.4 °C 8.7 °C 1020.9 hPa SSE 13.0 km/h 13.0 km/h 50 % 0.0 mm
13:31 19.0 °C 8.6 °C 1019.9 hPa ENE 14.8 km/h 14.8 km/h 51 % 0.0 mm
13:36 19.0 °C 8.6 °C 1019.9 hPa SE 5.6 km/h 11.1 km/h 51 % 0.0 mm
13:41 18.8 °C 8.7 °C 1019.9 hPa SSE 5.6 km/h 6.1 km/h 52 % 0.0 mm
13:46 18.9 °C 8.8 °C 1019.9 hPa ESE 18.3 km/h 18.3 km/h 52 % 0.0 mm
13:51 18.7 °C 8.9 °C 1019.9 hPa SSW 9.3 km/h 9.3 km/h 53 % 0.0 mm
13:56 18.8 °C 9.0 °C 1019.9 hPa SSW 6.1 km/h 8.7 km/h 53 % 0.0 mm
14:01 18.7 °C 8.9 °C 1019.9 hPa ESE 7.4 km/h 7.4 km/h 53 % 0.0 mm
14:11 18.6 °C 8.8 °C 1019.9 hPa WNW 13.0 km/h 13.0 km/h 53 % 0.0 mm
14:16 19.2 °C 9.1 °C 1019.9 hPa SE 9.3 km/h 9.3 km/h 52 % 0.0 mm
14:21 19.2 °C 9.1 °C 1019.9 hPa SSW 7.4 km/h 7.6 km/h 52 % 0.0 mm
14:26 18.9 °C 9.1 °C 1019.9 hPa South 13.0 km/h 13.0 km/h 53 % 0.0 mm
14:31 19.0 °C 8.6 °C 1019.9 hPa ENE 13.0 km/h 13.0 km/h 51 % 0.0 mm
14:36 19.0 °C 8.6 °C 1019.9 hPa South 7.6 km/h 7.6 km/h 51 % 0.0 mm
14:41 19.0 °C 8.6 °C 1019.9 hPa SSE 3.9 km/h 4.2 km/h 51 % 0.0 mm
14:46 19.3 °C 8.9 °C 1019.9 hPa SSE 3.9 km/h 4.2 km/h 51 % 0.0 mm
14:56 20.0 °C 9.6 °C 1019.9 hPa SSW 9.3 km/h 9.3 km/h 51 % 0.0 mm
15:01 20.7 °C 9.9 °C 1018.8 hPa SSE 5.8 km/h 5.8 km/h 50 % 0.0 mm
15:06 21.3 °C 9.8 °C 1018.8 hPa South 13.0 km/h 13.0 km/h 48 % 0.0 mm
15:11 21.3 °C 9.5 °C 1018.8 hPa ESE 18.5 km/h 18.5 km/h 47 % 0.0 mm
15:16 21.4 °C 9.9 °C 1019.9 hPa East 7.4 km/h 7.4 km/h 48 % 0.0 mm
15:21 21.2 °C 9.4 °C 1019.9 hPa SW 5.6 km/h 5.6 km/h 47 % 0.0 mm
15:26 22.0 °C 10.2 °C 1019.9 hPa SSW 7.4 km/h 7.4 km/h 47 % 0.0 mm
15:31 21.5 °C 9.4 °C 1019.9 hPa WSW 9.3 km/h 9.3 km/h 46 % 0.0 mm
15:36 20.9 °C 9.2 °C 1019.9 hPa SW 11.1 km/h 11.1 km/h 47 % 0.0 mm
15:41 20.6 °C 8.9 °C 1019.9 hPa WSW 13.0 km/h 13.0 km/h 47 % 0.0 mm
15:46 20.6 °C 8.9 °C 1019.9 hPa SW 5.6 km/h 5.6 km/h 47 % 0.0 mm
15:51 21.0 °C 8.6 °C 1019.9 hPa WSW 7.4 km/h 7.4 km/h 45 % 0.0 mm
15:56 20.7 °C 9.0 °C 1019.9 hPa SW 9.3 km/h 9.3 km/h 47 % 0.0 mm
16:01 21.0 °C 8.6 °C 1019.9 hPa WSW 9.3 km/h 9.3 km/h 45 % 0.0 mm
16:06 21.6 °C 9.2 °C 1019.9 hPa SW 3.7 km/h 3.7 km/h 45 % 0.0 mm
16:11 21.3 °C 8.6 °C 1019.9 hPa WSW 4.2 km/h 4.2 km/h 44 % 0.0 mm
16:16 21.3 °C 8.6 °C 1019.9 hPa South 3.9 km/h 3.9 km/h 44 % 0.0 mm
16:21 21.7 °C 8.9 °C 1019.9 hPa WSW 5.6 km/h 5.6 km/h 44 % 0.0 mm
16:26 20.4 °C 8.1 °C 1019.9 hPa WSW 13.0 km/h 13.0 km/h 45 % 0.0 mm
16:31 20.1 °C 8.1 °C 1018.8 hPa ENE 7.4 km/h 7.4 km/h 46 % 0.0 mm
16:36 19.3 °C 7.7 °C 1018.8 hPa SE 22.2 km/h 22.2 km/h 47 % 0.0 mm
16:41 18.8 °C 7.8 °C 1018.8 hPa East 7.4 km/h 7.4 km/h 49 % 0.0 mm
16:46 18.4 °C 7.5 °C 1019.9 hPa ESE 16.7 km/h 16.7 km/h 49 % 0.0 mm
16:51 18.3 °C 7.7 °C 1019.9 hPa SE 18.5 km/h 18.5 km/h 50 % 0.0 mm
16:56 18.1 °C 7.5 °C 1019.9 hPa ESE 24.1 km/h 24.1 km/h 50 % 0.0 mm
17:01 18.1 °C 7.5 °C 1019.9 hPa ESE 13.0 km/h 13.0 km/h 50 % 0.0 mm
17:06 17.8 °C 7.2 °C 1019.9 hPa ESE 22.2 km/h 22.2 km/h 50 % 0.0 mm
17:11 17.6 °C 7.1 °C 1019.9 hPa East 13.0 km/h 13.0 km/h 50 % 0.0 mm
17:16 17.4 °C 7.2 °C 1019.9 hPa ESE 16.4 km/h 16.4 km/h 51 % 0.0 mm
17:21 17.1 °C 6.9 °C 1019.9 hPa ESE 16.7 km/h 16.7 km/h 51 % 0.0 mm
17:26 17.7 °C 7.4 °C 1019.9 hPa SE 6.9 km/h 6.9 km/h 51 % 0.0 mm
17:31 18.0 °C 7.7 °C 1019.9 hPa SE 7.4 km/h 7.4 km/h 51 % 0.0 mm
17:36 18.0 °C 7.7 °C 1019.9 hPa SSE 14.8 km/h 14.8 km/h 51 % 0.0 mm
17:41 18.0 °C 7.7 °C 1019.9 hPa ESE 10.3 km/h 10.3 km/h 51 % 0.0 mm
17:51 17.9 °C 7.6 °C 1019.9 hPa West 3.7 km/h 3.7 km/h 51 % 0.0 mm
17:56 18.1 °C 7.8 °C 1019.9 hPa ESE 7.9 km/h 7.9 km/h 51 % 0.0 mm
18:01 18.3 °C 8.0 °C 1019.9 hPa WNW 3.7 km/h 3.7 km/h 51 % 0.0 mm
18:06 18.6 °C 8.3 °C 1019.9 hPa East 7.4 km/h 7.4 km/h 51 % 0.0 mm
18:11 18.4 °C 8.1 °C 1019.9 hPa SSW 14.8 km/h 14.8 km/h 51 % 0.0 mm
18:16 17.8 °C 7.5 °C 1019.9 hPa ESE 9.3 km/h 9.3 km/h 51 % 0.0 mm
18:21 17.0 °C 7.1 °C 1019.9 hPa East 15.6 km/h 15.6 km/h 52 % 0.0 mm
18:26 16.6 °C 7.0 °C 1019.9 hPa ENE 16.7 km/h 16.7 km/h 53 % 0.0 mm
18:31 16.2 °C 6.9 °C 1019.9 hPa ESE 20.4 km/h 20.4 km/h 54 % 0.0 mm
18:36 16.1 °C 6.8 °C 1019.9 hPa ENE 22.5 km/h 22.5 km/h 54 % 0.0 mm
18:41 15.8 °C 6.8 °C 1019.9 hPa ESE 16.7 km/h 16.7 km/h 55 % 0.0 mm
18:46 15.8 °C 6.8 °C 1019.9 hPa ESE 16.7 km/h 16.7 km/h 55 % 0.0 mm
18:51 15.8 °C 6.8 °C 1019.9 hPa ESE 16.7 km/h 16.7 km/h 55 % 0.0 mm
18:56 15.8 °C 6.8 °C 1019.9 hPa ESE 16.7 km/h 16.7 km/h 55 % 0.0 mm
19:01 15.8 °C 6.8 °C 1019.9 hPa ESE 16.7 km/h 16.7 km/h 55 % 0.0 mm
19:06 15.8 °C 6.8 °C 1019.9 hPa ESE 16.7 km/h 16.7 km/h 55 % 0.0 mm
19:10 11.2 °C 5.9 °C 1022.9 hPa ESE 1.6 km/h   70 % 0.0 mm
19:11 15.8 °C 6.8 °C 1019.9 hPa ESE 16.7 km/h 16.7 km/h 55 % 0.0 mm
19:16 15.8 °C 6.8 °C 1019.9 hPa ESE 16.7 km/h 16.7 km/h 55 % 0.0 mm
19:20 11.1 °C 5.8 °C 1021.9 hPa East 1.6 km/h 3.2 km/h 70 % 0.0 mm
19:21 15.8 °C 6.8 °C 1019.9 hPa ESE 16.7 km/h 16.7 km/h 55 % 0.0 mm
19:26 15.8 °C 6.8 °C 1019.9 hPa ESE 16.7 km/h 16.7 km/h 55 % 0.0 mm
19:30 11.0 °C 5.5 °C 1021.9 hPa North 1.6 km/h 3.2 km/h 69 % 0.0 mm
19:31 15.8 °C 6.8 °C 1019.9 hPa ESE 16.7 km/h 16.7 km/h 55 % 0.0 mm
19:36 15.8 °C 6.8 °C 1019.9 hPa ESE 16.7 km/h 16.7 km/h 55 % 0.0 mm
19:40 10.9 °C 5.7 °C 1021.9 hPa Calm   1.6 km/h 70 % 0.0 mm
19:41 15.8 °C 6.8 °C 1019.9 hPa ESE 16.7 km/h 16.7 km/h 55 % 0.0 mm
19:46 15.8 °C 6.8 °C 1019.9 hPa ESE 16.7 km/h 16.7 km/h 55 % 0.0 mm
19:50 10.9 °C 5.7 °C 1022.9 hPa East 3.2 km/h 3.2 km/h 70 % 0.0 mm
19:56 15.8 °C 6.8 °C 1019.9 hPa ESE 16.7 km/h 16.7 km/h 55 % 0.0 mm
20:00 10.7 °C 5.4 °C 1022.9 hPa Calm   4.8 km/h 70 % 0.0 mm
20:01 15.8 °C 6.8 °C 1019.9 hPa ESE 16.7 km/h 16.7 km/h 55 % 0.0 mm
20:10 10.2 °C 4.9 °C 1022.9 hPa SSW 1.6 km/h 3.2 km/h 70 % 0.0 mm
20:11 15.8 °C 6.8 °C 1019.9 hPa ESE 16.7 km/h 16.7 km/h 55 % 0.0 mm
20:16 15.8 °C 6.8 °C 1019.9 hPa ESE 16.7 km/h 16.7 km/h 55 % 0.0 mm
20:20 10.1 °C 5.1 °C 1022.9 hPa WSW 3.2 km/h 4.8 km/h 71 % 0.0 mm
20:21 15.8 °C 6.8 °C 1019.9 hPa ESE 16.7 km/h 16.7 km/h 55 % 0.0 mm
20:26 15.8 °C 6.8 °C 1019.9 hPa ESE 16.7 km/h 16.7 km/h 55 % 0.0 mm
20:30 9.9 °C 5.3 °C 1022.9 hPa Calm   3.2 km/h 73 % 0.0 mm
20:31 15.8 °C 6.8 °C 1019.9 hPa ESE 16.7 km/h 16.7 km/h 55 % 0.0 mm
20:36 15.8 °C 6.8 °C 1019.9 hPa ESE 16.7 km/h 16.7 km/h 55 % 0.0 mm
20:40 9.9 °C 5.5 °C 1022.9 hPa Calm     74 % 0.0 mm
20:41 15.8 °C 6.8 °C 1019.9 hPa ESE 16.7 km/h 16.7 km/h 55 % 0.0 mm
20:46 15.8 °C 6.8 °C 1019.9 hPa ESE 16.7 km/h 16.7 km/h 55 % 0.0 mm
20:51 15.8 °C 6.8 °C 1019.9 hPa ESE 16.7 km/h 16.7 km/h 55 % 0.0 mm
20:56 15.8 °C 6.8 °C 1019.9 hPa ESE 16.7 km/h 16.7 km/h 55 % 0.0 mm
21:00 9.6 °C 5.0 °C 1022.9 hPa SW 1.6 km/h 3.2 km/h 73 % 0.0 mm
21:01 15.8 °C 6.8 °C 1019.9 hPa ESE 16.7 km/h 16.7 km/h 55 % 0.0 mm
21:06 15.8 °C 6.8 °C 1019.9 hPa ESE 16.7 km/h 16.7 km/h 55 % 0.0 mm
21:10 9.4 °C 5.0 °C 1022.9 hPa Calm   3.2 km/h 74 % 0.0 mm
21:11 15.8 °C 6.8 °C 1019.9 hPa ESE 16.7 km/h 16.7 km/h 55 % 0.0 mm
21:16 15.8 °C 6.8 °C 1019.9 hPa ESE 16.7 km/h 16.7 km/h 55 % 0.0 mm
21:20 9.2 °C 4.8 °C 1022.9 hPa Calm   1.6 km/h 74 % 0.0 mm
21:21 15.8 °C 6.8 °C 1019.9 hPa ESE 16.7 km/h 16.7 km/h 55 % 0.0 mm
21:26 15.8 °C 6.8 °C 1019.9 hPa ESE 16.7 km/h 16.7 km/h 55 % 0.0 mm
21:30 9.4 °C 5.2 °C 1022.9 hPa Calm     75 % 0.0 mm
21:31 15.8 °C 6.8 °C 1019.9 hPa ESE 16.7 km/h 16.7 km/h 55 % 0.0 mm
21:36 15.8 °C 6.8 °C 1019.9 hPa ESE 16.7 km/h 16.7 km/h 55 % 0.0 mm
21:40 9.3 °C 5.1 °C 1022.9 hPa Calm     75 % 0.0 mm
21:41 15.8 °C 6.8 °C 1019.9 hPa ESE 16.7 km/h 16.7 km/h 55 % 0.0 mm
21:46 15.8 °C 6.8 °C 1019.9 hPa ESE 16.7 km/h 16.7 km/h 55 % 0.0 mm
21:50 9.5 °C 5.3 °C 1022.9 hPa WSW 1.6 km/h 1.6 km/h 75 % 0.0 mm
21:51 15.8 °C 6.8 °C 1019.9 hPa ESE 16.7 km/h 16.7 km/h 55 % 0.0 mm
21:56 15.8 °C 6.8 °C 1019.9 hPa ESE 16.7 km/h 16.7 km/h 55 % 0.0 mm
22:00 9.5 °C 5.3 °C 1021.9 hPa WNW 1.6 km/h 1.6 km/h 75 % 0.0 mm
22:01 15.8 °C 6.8 °C 1019.9 hPa ESE 16.7 km/h 16.7 km/h 55 % 0.0 mm
22:06 15.8 °C 6.8 °C 1019.9 hPa ESE 16.7 km/h 16.7 km/h 55 % 0.0 mm
22:10 9.5 °C 5.3 °C 1021.9 hPa North 1.6 km/h 3.2 km/h 75 % 0.0 mm
22:11 15.8 °C 6.8 °C 1019.9 hPa ESE 16.7 km/h 16.7 km/h 55 % 0.0 mm
22:16 15.8 °C 6.8 °C 1019.9 hPa ESE 16.7 km/h 16.7 km/h 55 % 0.0 mm
22:20 9.1 °C 4.5 °C 1021.9 hPa NNW 1.6 km/h 3.2 km/h 73 % 0.0 mm
22:21 15.8 °C 6.8 °C 1019.9 hPa ESE 16.7 km/h 16.7 km/h 55 % 0.0 mm
22:27 15.8 °C 6.8 °C 1019.9 hPa ESE 16.7 km/h 16.7 km/h 55 % 0.0 mm
22:30 9.0 °C 4.8 °C 1021.9 hPa Calm   1.6 km/h 75 % 0.0 mm
22:32 15.8 °C 6.8 °C 1019.9 hPa ESE 16.7 km/h 16.7 km/h 55 % 0.0 mm
22:37 15.8 °C 6.8 °C 1019.9 hPa ESE 16.7 km/h 16.7 km/h 55 % 0.0 mm
22:40 9.0 °C 5.0 °C 1021.9 hPa Calm   1.6 km/h 76 % 0.0 mm
22:42 15.8 °C 6.8 °C 1019.9 hPa ESE 16.7 km/h 16.7 km/h 55 % 0.0 mm
22:47 15.8 °C 6.8 °C 1019.9 hPa ESE 16.7 km/h 16.7 km/h 55 % 0.0 mm
22:50 8.9 °C 4.7 °C 1021.9 hPa West 1.6 km/h 1.6 km/h 75 % 0.0 mm
22:52 15.8 °C 6.8 °C 1019.9 hPa ESE 16.7 km/h 16.7 km/h 55 % 0.0 mm
22:57 15.8 °C 6.8 °C 1019.9 hPa ESE 16.7 km/h 16.7 km/h 55 % 0.0 mm
23:00 8.9 °C 4.9 °C 1021.9 hPa Calm   1.6 km/h 76 % 0.0 mm
23:02 15.8 °C 6.8 °C 1019.9 hPa ESE 16.7 km/h 16.7 km/h 55 % 0.0 mm
23:07 15.8 °C 6.8 °C 1019.9 hPa ESE 16.7 km/h 16.7 km/h 55 % 0.0 mm
23:10 8.9 °C 4.9 °C 1021.9 hPa Calm   1.6 km/h 76 % 0.0 mm
23:12 15.8 °C 6.8 °C 1019.9 hPa ESE 16.7 km/h 16.7 km/h 55 % 0.0 mm
23:17 15.8 °C 6.8 °C 1019.9 hPa ESE 16.7 km/h 16.7 km/h 55 % 0.0 mm
23:20 8.3 °C 3.9 °C 1021.9 hPa WNW 3.2 km/h 4.8 km/h 74 % 0.0 mm
23:22 15.8 °C 6.8 °C 1019.9 hPa ESE 16.7 km/h 16.7 km/h 55 % 0.0 mm
23:27 15.8 °C 6.8 °C 1019.9 hPa ESE 16.7 km/h 16.7 km/h 55 % 0.0 mm
23:30 8.5 °C 4.5 °C 1020.9 hPa Calm   3.2 km/h 76 % 0.0 mm
23:32 15.8 °C 6.8 °C 1019.9 hPa ESE 16.7 km/h 16.7 km/h 55 % 0.0 mm
23:37 15.8 °C 6.8 °C 1019.9 hPa ESE 16.7 km/h 16.7 km/h 55 % 0.0 mm
23:40 8.4 °C 4.4 °C 1020.9 hPa South 1.6 km/h 3.2 km/h 76 % 0.0 mm
23:42 15.8 °C 6.8 °C 1019.9 hPa ESE 16.7 km/h 16.7 km/h 55 % 0.0 mm
23:47 15.8 °C 6.8 °C 1019.9 hPa ESE 16.7 km/h 16.7 km/h 55 % 0.0 mm
23:50 8.2 °C 4.1 °C 1020.9 hPa Calm   1.6 km/h 75 % 0.0 mm
23:52 15.8 °C 6.8 °C 1019.9 hPa ESE 16.7 km/h 16.7 km/h 55 % 0.0 mm
23:57 15.8 °C 6.8 °C 1019.9 hPa ESE 16.7 km/h 16.7 km/h 55 % 0.0 mm
Meteo Sesrovires
Elogis d' Weather Underground - 3.5 mb

Guio original per  Jim McMurry - jmcmurry@mwt.net Adaptat per a la plantilla per  Wim van der Kuil - Leuven-Template.eu

Trobareu la nostra informacio del temps tambe a:

Weather Underground

AWEKAS